Wichita Mid Continent Airport
KICT : now visible

Aeroporto :











RITROVATECI SU...

 
LOGIN :

Iscrizione | Disclaimer

   EN    FR    IT 

 









Sommario :    VFR   VFR Marginale   IFR   IFR Intensivo   IFR Molto Intensivo
Visibilità : 
Base nubi : 
>= 8 km
>= 3000ft
5 / 8 km
1000 / 3000 ft
1500m / 5 km
500 / 1000 ft
800 / 1500m
200 / 500 ft
< 800m
< 200 ft
Simboli :   Temporali  Nebbia  Neve Forte  Precipitazioni Forti  Vento > 20 kt






- Altitudine del aeroporto : 1333 ft
- Codice IATA : ICT


KICT - Wichita Mid Continent

ULTIMO METAR :
  • 261606Z 01016G24KT 6SM -SN BR BKN013 OVC018 M04/M06 A3038 RMK AO2 P0000 T10391061

METARs OBSOLETI :
  • 261553Z 36016G25KT 1/2SM R01L/P6000FT -SN BR BKN013 OVC018 M04/M06 A3037 RMK AO2 PK WND 01026/1516 SFC VIS 6 SLP299 P0001 T10391061
  • 261453Z 01017G23KT 1/2SM R01L/P6000FT SN BR FEW010 OVC015 M04/M06 A3035 RMK AO2 SFC VIS 1 SLP293 P0003 60008 T10441061 50020
  • 261427Z 01013G22KT 1/2SM R01L/3000V3500FT SN FZFG OVC015 M04/M06 A3035 RMK AO2 P0002 T10441056
  • 261410Z 36014G22KT 1 1/4SM R01L/5000VP6000FT -SN BR BKN015 OVC020 M04/M06 A3036 RMK AO2 TWR VIS 3 P0001 T10391061
  • 261353Z 36014G21KT 2SM -SN BR BKN015 OVC020 M04/M06 A3037 RMK AO2 PK WND 36028/1305 SFC VIS 5 PLE28 SLP300 P0002 T10391056 $
  • 261328Z 01015G26KT 2SM -SN BR BKN012 OVC018 M04/M06 A3032 RMK AO2 PK WND 36028/1305 PLE28 P0001 T10391056 $

TAF KICT
Valido dal 26 a 15 ore il 27 a 12 ore UTC


261440Z 2615/2712 01017G30KT 2SM -SNPL BR SCT010 OVC015
TEMPO 2615/2618 1/2SM SN FG OVC010
FM261800 01015G23KT 2SM -FZRASN BR OVC015
FM262100 01015G23KT 6SM -FZDZSN BR OVC020
FM271100 01012KT P6SM OVC040
FIR KZKC / America del Nord



MetMap, La meteo Aeronautica in un colpo d'occhio ! - Copyright ORBIFLY Dicembre 2007 - Disclaimer

ORBIFLY MET'MAP TEAM :

Programmazione e sviluppo : Alexandra Zaïnal
Concezione : Baudouin d'Aumeries
Aiuto per la programmazione : Marc-Olivier Méhu
Supporto tecnico e logistico : Manuel Goepfert
Aiuto per la traduzione : Arnaldo La Scala

Contatto : metmap@orbifly.com




FONTI E CREDITI :

   NOAA       Earth
Advisory